Time;durP1;ratioP1;P1;durP2;ratioP2;P2;SDS_P1;SDS_P2;PMS_P1;PMS_P2;Temp;Humidity;BMP_temperature;BMP_pressure;BME280_temperature;BME280_humidity;BME280_pressure;Samples;Min_cycle;Max_cycle;Signal;HPM_P1;HPM_P2
2023/04/09 00:02:10;;;;;;;3.78;3.28;;;10.30;97.40;;;;;;6222162;28;20486;-77
2023/04/09 00:05:12;;;;;;;4.25;3.95;;;10.30;97.50;;;;;;6221178;28;20050;-78
2023/04/09 00:08:17;;;;;;;6.10;3.38;;;10.30;97.50;;;;;;6221382;28;20049;-77
2023/04/09 00:11:18;;;;;;;3.90;3.60;;;10.20;97.60;;;;;;6223726;28;20046;-77
2023/04/09 00:14:21;;;;;;;3.85;3.55;;;10.20;97.70;;;;;;6225826;28;20046;-77
2023/04/09 00:17:23;;;;;;;3.72;3.40;;;10.20;97.80;;;;;;6226781;28;20054;-78
2023/04/09 00:20:25;;;;;;;3.97;3.45;;;10.20;97.80;;;;;;6225692;28;20719;-77
2023/04/09 00:23:27;;;;;;;5.57;3.42;;;10.20;97.90;;;;;;6225099;28;20041;-77
2023/04/09 00:26:28;;;;;;;5.80;4.00;;;10.20;98.30;;;;;;6244436;28;20498;-77
2023/04/09 00:29:33;;;;;;;3.53;3.22;;;10.20;98.00;;;;;;6250198;28;20065;-77
2023/04/09 00:32:34;;;;;;;3.47;3.17;;;10.10;98.10;;;;;;6274647;28;20045;-78
2023/04/09 00:35:42;;;;;;;4.53;4.13;;;10.10;98.20;;;;;;6283287;28;20049;-78
2023/04/09 00:38:45;;;;;;;4.40;4.00;;;10.10;98.30;;;;;;6268839;28;20046;-78
2023/04/09 00:41:47;;;;;;;7.70;3.97;;;10.10;98.40;;;;;;6250682;28;20076;-78
2023/04/09 00:44:50;;;;;;;4.75;4.35;;;10.10;98.40;;;;;;6251213;28;20076;-77
2023/04/09 00:47:52;;;;;;;4.72;4.32;;;10.00;98.50;;;;;;6249786;28;20054;-78
2023/04/09 00:50:54;;;;;;;5.15;4.65;;;10.00;98.60;;;;;;6249401;28;20048;-77
2023/04/09 00:53:56;;;;;;;4.80;4.40;;;10.00;98.70;;;;;;6249612;28;20064;-77
2023/04/09 00:56:59;;;;;;;3.92;3.63;;;10.00;98.90;;;;;;6273981;28;20512;-78
2023/04/09 01:00:06;;;;;;;6.30;4.43;;;10.00;99.00;;;;;;6255836;28;20414;-78
2023/04/09 01:03:08;;;;;;;4.33;4.00;;;9.90;99.10;;;;;;6249159;28;20041;-77
2023/04/09 01:06:15;;;;;;;4.40;3.70;;;9.90;99.20;;;;;;6248819;28;20065;-78
2023/04/09 01:09:24;;;;;;;5.60;4.28;;;9.90;99.30;;;;;;6250119;28;20046;-77
2023/04/09 01:12:32;;;;;;;4.90;4.50;;;9.90;99.40;;;;;;6249007;28;20056;-77
2023/04/09 01:15:40;;;;;;;4.57;4.18;;;9.90;99.60;;;;;;6248358;28;20049;-77
2023/04/09 01:18:44;;;;;;;;;;;9.80;99.60;;;;;;6249243;28;20048;-77
2023/04/09 01:21:46;;;;;;;4.82;4.43;;;9.80;99.70;;;;;;6249281;28;19925;-77
2023/04/09 01:25:03;;;;;;;4.60;4.20;;;9.80;99.70;;;;;;6251837;28;20046;-77
2023/04/09 01:28:16;;;;;;;4.88;4.47;;;9.80;99.80;;;;;;6250929;28;20079;-78
2023/04/09 01:31:20;;;;;;;5.68;5.18;;;9.80;99.90;;;;;;6251654;28;20045;-79
2023/04/09 01:34:22;;;;;;;4.97;4.55;;;9.70;99.90;;;;;;6252465;28;20048;-79
2023/04/09 01:37:25;;;;;;;5.15;4.75;;;9.70;99.90;;;;;;6252862;28;20515;-79
2023/04/09 01:40:26;;;;;;;5.07;4.68;;;9.80;99.90;;;;;;6262388;28;20046;-79
2023/04/09 01:43:31;;;;;;;6.05;5.55;;;9.70;99.90;;;;;;6253306;28;20054;-79
2023/04/09 01:46:33;;;;;;;4.40;4.03;;;9.70;99.90;;;;;;6253763;28;20058;-78
2023/04/09 01:49:37;;;;;;;6.30;4.95;;;9.70;99.90;;;;;;6252809;28;20056;-78
2023/04/09 01:52:39;;;;;;;4.80;4.40;;;9.60;99.90;;;;;;6253004;28;20041;-79
2023/04/09 01:55:40;;;;;;;4.28;3.97;;;9.60;99.90;;;;;;6252475;28;20048;-80
2023/04/09 01:58:44;;;;;;;5.70;5.18;;;9.60;99.90;;;;;;6252517;28;20048;-80
2023/04/09 02:01:47;;;;;;;5.35;4.85;;;9.60;99.90;;;;;;6251878;28;20041;-80
2023/04/09 02:04:51;;;;;;;5.88;5.00;;;9.60;99.90;;;;;;6251379;28;20041;-80
2023/04/09 02:07:56;;;;;;;4.93;4.53;;;9.50;99.90;;;;;;6251512;28;20076;-80
2023/04/09 02:11:00;;;;;;;5.45;5.00;;;9.50;99.90;;;;;;6251001;28;20053;-79
2023/04/09 02:14:04;;;;;;;4.70;4.22;;;9.50;99.90;;;;;;6251102;28;20049;-80
2023/04/09 02:17:06;;;;;;;4.93;4.53;;;9.50;99.90;;;;;;6251641;28;20468;-79
2023/04/09 02:20:09;;;;;;;5.35;4.85;;;9.50;99.90;;;;;;6235346;28;20418;-80
2023/04/09 02:23:10;;;;;;;4.60;4.20;;;9.50;99.90;;;;;;6226609;28;20046;-78
2023/04/09 02:26:12;;;;;;;5.47;4.97;;;9.50;99.90;;;;;;6226251;28;20073;-77
2023/04/09 02:29:15;;;;;;;5.35;4.85;;;9.50;99.90;;;;;;6225721;28;20053;-78
2023/04/09 02:32:17;;;;;;;4.47;4.07;;;9.40;99.90;;;;;;6225520;28;20046;-78
2023/04/09 02:35:18;;;;;;;5.57;5.10;;;9.40;99.90;;;;;;6228067;28;20042;-79
2023/04/09 02:38:20;;;;;;;5.60;5.10;;;9.40;99.90;;;;;;6250360;28;20049;-80
2023/04/09 02:41:23;;;;;;;5.90;4.65;;;9.40;99.90;;;;;;6250421;28;20053;-80
2023/04/09 02:44:26;;;;;;;6.10;5.60;;;9.40;99.90;;;;;;6256616;28;20057;-78
2023/04/09 02:47:29;;;;;;;5.97;5.47;;;9.30;99.90;;;;;;6253789;28;20058;-78
2023/04/09 02:50:30;;;;;;;7.13;5.13;;;9.30;99.90;;;;;;6250250;28;20049;-80
2023/04/09 02:53:32;;;;;;;6.82;6.22;;;9.30;99.90;;;;;;6250496;28;20056;-77
2023/04/09 02:56:34;;;;;;;7.18;6.22;;;9.20;99.90;;;;;;6250243;28;20046;-78
2023/04/09 02:59:37;;;;;;;5.03;4.63;;;9.20;99.90;;;;;;6250002;28;20056;-77
2023/04/09 03:02:39;;;;;;;6.05;5.55;;;9.20;99.90;;;;;;6250288;28;20037;-79
2023/04/09 03:05:41;;;;;;;6.10;5.55;;;9.20;99.90;;;;;;6249494;28;20171;-79
2023/04/09 03:08:42;;;;;;;7.65;5.10;;;9.20;99.90;;;;;;6249487;28;20123;-78
2023/04/09 03:11:44;;;;;;;5.05;4.55;;;9.20;99.90;;;;;;6249689;28;20041;-79
2023/04/09 03:14:47;;;;;;;5.45;4.85;;;9.20;99.90;;;;;;6248822;28;20050;-79
2023/04/09 03:17:49;;;;;;;6.20;5.70;;;9.20;99.90;;;;;;6250638;28;20069;-78
2023/04/09 03:20:50;;;;;;;5.85;5.35;;;9.20;99.90;;;;;;6249662;28;20041;-79
2023/04/09 03:23:52;;;;;;;5.15;4.68;;;9.10;99.90;;;;;;6248376;28;20045;-78
2023/04/09 03:26:54;;;;;;;6.53;5.93;;;9.10;99.90;;;;;;6248114;28;20053;-78
2023/04/09 03:29:57;;;;;;;5.43;4.80;;;9.10;99.90;;;;;;6249150;28;20064;-78
2023/04/09 03:32:59;;;;;;;5.72;5.13;;;9.10;99.90;;;;;;6249339;28;20049;-79
2023/04/09 03:36:00;;;;;;;6.40;5.80;;;9.00;99.90;;;;;;6265568;28;20508;-78
2023/04/09 03:39:02;;;;;;;6.93;6.25;;;9.00;99.90;;;;;;6273185;28;20402;-78
2023/04/09 03:42:04;;;;;;;6.65;5.95;;;9.00;99.90;;;;;;6272503;28;20076;-78
2023/04/09 03:45:08;;;;;;;5.25;4.75;;;8.90;99.90;;;;;;6248456;28;20075;-78
2023/04/09 03:48:09;;;;;;;4.90;4.40;;;8.90;99.90;;;;;;6248617;28;20045;-78
2023/04/09 03:51:12;;;;;;;6.15;5.55;;;8.90;99.90;;;;;;6259799;28;20033;-78
2023/04/09 03:54:14;;;;;;;6.28;5.75;;;8.80;99.90;;;;;;6250769;28;20104;-78
2023/04/09 03:57:16;;;;;;;6.82;6.13;;;8.80;99.90;;;;;;6251345;28;20053;-79
2023/04/09 04:00:19;;;;;;;5.10;4.65;;;8.80;99.90;;;;;;6249201;28;20056;-77
2023/04/09 04:03:21;;;;;;;6.20;5.60;;;8.70;99.90;;;;;;6254707;28;20057;-77
2023/04/09 04:06:22;;;;;;;6.30;4.68;;;8.70;99.90;;;;;;6253538;28;20051;-79
2023/04/09 04:09:24;;;;;;;6.78;6.15;;;8.80;99.90;;;;;;6250893;28;20049;-79
2023/04/09 04:12:26;;;;;;;6.43;5.18;;;8.60;99.90;;;;;;6250416;28;20041;-79
2023/04/09 04:15:29;;;;;;;6.13;5.57;;;8.60;99.90;;;;;;6249585;28;20049;-79
2023/04/09 04:18:31;;;;;;;6.95;6.22;;;8.50;99.90;;;;;;6249649;28;20042;-81
2023/04/09 04:21:32;;;;;;;6.15;5.65;;;8.50;99.90;;;;;;6249428;28;20046;-80
2023/04/09 04:24:34;;;;;;;6.70;5.10;;;8.40;99.90;;;;;;6251758;28;20048;-80
2023/04/09 04:27:36;;;;;;;6.53;5.90;;;8.40;99.90;;;;;;6233875;28;20052;-79
2023/04/09 04:30:41;;;;;;;6.60;6.00;;;8.30;99.90;;;;;;6220511;28;20429;-79
2023/04/09 04:33:43;;;;;;;6.22;5.63;;;8.20;99.90;;;;;;6221957;28;20054;-80
2023/04/09 04:36:44;;;;;;;5.30;4.75;;;8.10;99.90;;;;;;6221042;28;20042;-78
2023/04/09 04:39:46;;;;;;;6.47;5.88;;;8.00;99.90;;;;;;6219952;28;20048;-78
2023/04/09 04:42:48;;;;;;;6.10;5.50;;;7.90;99.90;;;;;;6221055;28;20049;-78
2023/04/09 04:45:51;;;;;;;7.10;6.40;;;7.80;99.90;;;;;;6245176;28;20053;-79
2023/04/09 04:48:53;;;;;;;6.38;5.70;;;7.70;99.90;;;;;;6245215;28;20052;-79
2023/04/09 04:51:54;;;;;;;8.15;5.65;;;7.70;99.90;;;;;;6261468;28;20045;-80
2023/04/09 04:54:56;;;;;;;6.68;5.90;;;7.60;99.90;;;;;;6271328;28;20048;-79
2023/04/09 04:57:57;;;;;;;7.00;6.30;;;7.50;99.90;;;;;;6249013;28;20057;-79
2023/04/09 05:01:00;;;;;;;7.72;6.25;;;7.50;99.90;;;;;;6249983;28;20056;-78
2023/04/09 05:04:03;;;;;;;6.47;5.93;;;7.40;99.90;;;;;;6249700;28;20045;-80
2023/04/09 05:07:04;;;;;;;6.70;6.00;;;7.30;99.90;;;;;;6249872;28;20060;-79
2023/04/09 05:10:08;;;;;;;6.93;6.30;;;7.30;99.90;;;;;;6250194;28;20136;-79
2023/04/09 05:13:10;;;;;;;7.32;6.28;;;7.20;99.90;;;;;;6250605;28;20053;-79
2023/04/09 05:16:17;;;;;;;9.27;6.78;;;7.20;99.90;;;;;;6249680;28;20041;-80
2023/04/09 05:19:19;;;;;;;6.28;5.57;;;7.10;99.90;;;;;;6249451;28;20594;-79
2023/04/09 05:22:21;;;;;;;6.53;5.82;;;7.10;99.90;;;;;;6250123;28;20052;-80
2023/04/09 05:25:22;;;;;;;6.95;5.82;;;7.10;99.90;;;;;;6249929;28;20184;-78
2023/04/09 05:28:24;;;;;;;7.25;6.55;;;7.10;99.90;;;;;;6249631;28;20328;-78
2023/04/09 05:31:27;;;;;;;9.05;8.13;;;7.10;99.90;;;;;;6236367;28;20525;-79
2023/04/09 05:34:29;;;;;;;10.07;5.80;;;7.10;99.90;;;;;;6224710;28;20068;-78
2023/04/09 05:37:31;;;;;;;7.00;6.30;;;7.20;99.90;;;;;;6228858;28;20056;-78
2023/04/09 05:40:34;;;;;;;6.97;6.28;;;7.30;99.90;;;;;;6225089;28;20049;-80
2023/04/09 05:43:35;;;;;;;8.25;7.47;;;7.40;99.90;;;;;;6224166;28;20433;-79
2023/04/09 05:46:38;;;;;;;7.60;6.80;;;7.50;99.90;;;;;;6229141;28;20585;-76
2023/04/09 05:49:40;;;;;;;8.68;7.13;;;7.70;99.90;;;;;;6242924;28;20052;-80
2023/04/09 05:52:42;;;;;;;7.45;6.75;;;7.80;99.90;;;;;;6226894;28;20053;-79
2023/04/09 05:55:43;;;;;;;7.53;6.53;;;7.90;99.90;;;;;;6225832;28;20430;-80
2023/04/09 05:58:46;;;;;;;6.32;5.70;;;7.90;99.90;;;;;;6230479;28;20052;-77
2023/04/09 06:01:49;;;;;;;6.95;6.22;;;7.90;99.90;;;;;;6232440;28;20046;-81
2023/04/09 06:04:51;;;;;;;8.32;7.43;;;7.90;99.90;;;;;;6249352;28;20071;-82
2023/04/09 06:07:52;;;;;;;8.75;6.85;;;7.90;99.90;;;;;;6249679;28;20056;-79
2023/04/09 06:10:54;;;;;;;7.53;6.60;;;7.80;99.90;;;;;;6241616;28;20046;-81
2023/04/09 06:13:56;;;;;;;8.80;7.90;;;7.90;99.90;;;;;;6224998;28;20056;-83
2023/04/09 06:17:00;;;;;;;7.75;6.95;;;7.80;99.90;;;;;;6290838;28;20059;-81
2023/04/09 06:20:02;;;;;;;8.57;7.60;;;7.90;99.90;;;;;;6299013;28;20059;-83
2023/04/09 06:23:03;;;;;;;8.68;6.85;;;7.90;99.90;;;;;;6299835;28;20064;-80
2023/04/09 06:26:05;;;;;;;8.80;7.90;;;8.00;99.90;;;;;;6262481;28;20049;-79
2023/04/09 06:29:07;;;;;;;10.45;8.13;;;8.10;99.90;;;;;;6294149;28;20508;-78
2023/04/09 06:32:10;;;;;;;7.85;6.82;;;8.20;99.90;;;;;;6297676;28;20045;-78
2023/04/09 06:35:21;;;;;;;8.43;7.63;;;8.30;99.90;;;;;;6274973;28;20037;-80
2023/04/09 06:38:23;;;;;;;7.88;7.07;;;8.60;99.90;;;;;;6273317;28;20051;-78
2023/04/09 06:41:25;;;;;;;8.82;7.97;;;9.00;99.90;;;;;;6263066;28;20077;-79
2023/04/09 06:44:27;;;;;;;8.10;7.30;;;9.60;99.90;;;;;;6268501;28;20071;-74
2023/04/09 06:47:30;;;;;;;8.00;7.30;;;10.00;99.90;;;;;;6259004;28;20535;-80
2023/04/09 06:50:32;;;;;;;8.70;7.82;;;10.30;99.90;;;;;;6266487;28;20049;-79
2023/04/09 06:53:33;;;;;;;10.35;9.45;;;10.70;99.90;;;;;;6260910;28;20417;-79
2023/04/09 06:56:35;;;;;;;9.13;8.32;;;11.00;99.90;;;;;;6260002;28;20045;-79
2023/04/09 06:59:37;;;;;;;9.23;8.35;;;11.30;99.90;;;;;;6263302;28;20048;-80
2023/04/09 07:02:40;;;;;;;8.45;7.75;;;11.70;99.90;;;;;;6263722;28;20040;-76
2023/04/09 07:05:42;;;;;;;7.95;7.28;;;12.00;99.90;;;;;;6271207;28;20057;-79
2023/04/09 07:08:44;;;;;;;7.45;6.85;;;12.50;99.90;;;;;;6259323;28;20083;-79
2023/04/09 07:11:45;;;;;;;7.85;7.25;;;12.80;99.90;;;;;;6260982;28;20060;-79
2023/04/09 07:14:47;;;;;;;8.30;7.57;;;13.20;99.90;;;;;;6262055;28;20064;-78
2023/04/09 07:17:50;;;;;;;8.25;7.60;;;13.50;99.90;;;;;;6261628;28;20049;-80
2023/04/09 07:20:52;;;;;;;8.82;8.13;;;13.70;99.90;;;;;;6262295;28;20053;-80
2023/04/09 07:23:55;;;;;;;6.70;6.10;;;14.20;99.90;;;;;;6265158;28;20045;-76
2023/04/09 07:26:56;;;;;;;6.13;5.68;;;14.80;99.40;;;;;;6263617;28;20045;-79
2023/04/09 07:29:59;;;;;;;7.00;6.50;;;15.40;98.20;;;;;;6262582;28;20635;-80
2023/04/09 07:33:02;;;;;;;11.82;6.55;;;16.20;96.90;;;;;;6261698;28;20580;-80
2023/04/09 07:36:04;;;;;;;7.30;6.70;;;16.80;95.30;;;;;;6263330;28;20421;-80
2023/04/09 07:39:06;;;;;;;6.10;5.68;;;17.40;93.90;;;;;;6262070;28;20038;-78
2023/04/09 07:42:07;;;;;;;6.18;5.68;;;17.90;92.30;;;;;;6262645;28;20052;-77
2023/04/09 07:45:09;;;;;;;6.15;5.65;;;18.50;91.00;;;;;;6260894;28;20049;-79
2023/04/09 07:48:12;;;;;;;6.47;5.90;;;18.80;89.60;;;;;;6264617;28;20057;-79
2023/04/09 07:51:14;;;;;;;6.05;5.65;;;19.40;86.80;;;;;;6264334;28;20064;-78
2023/04/09 07:54:16;;;;;;;6.45;5.95;;;19.70;84.50;;;;;;6262690;28;20049;-79
2023/04/09 07:57:18;;;;;;;5.65;5.25;;;19.90;81.50;;;;;;6260077;28;20057;-79
2023/04/09 08:00:20;;;;;;;5.30;4.90;;;20.10;79.60;;;;;;6261798;28;20059;-77
2023/04/09 08:03:22;;;;;;;6.28;5.75;;;19.90;77.80;;;;;;6263575;28;20045;-78
2023/04/09 08:06:25;;;;;;;6.07;5.57;;;19.50;76.80;;;;;;6263348;28;20049;-78
2023/04/09 08:09:27;;;;;;;5.60;5.20;;;19.10;77.10;;;;;;6274011;28;20049;-79
2023/04/09 08:12:28;;;;;;;6.75;6.25;;;19.10;76.40;;;;;;6264366;28;20041;-79
2023/04/09 08:15:31;;;;;;;6.00;5.60;;;18.70;77.00;;;;;;6261722;28;20052;-79
2023/04/09 08:18:34;;;;;;;6.60;6.00;;;18.50;77.70;;;;;;6260506;28;20056;-79
2023/04/09 08:21:37;;;;;;;6.07;5.57;;;18.70;77.70;;;;;;6262473;28;20068;-79
2023/04/09 08:24:39;;;;;;;7.10;6.47;;;18.60;77.90;;;;;;6260376;28;20052;-79
2023/04/09 08:27:40;;;;;;;8.20;7.40;;;18.80;78.40;;;;;;6260782;28;20072;-78
2023/04/09 08:30:43;;;;;;;8.27;7.47;;;18.90;77.90;;;;;;6261187;28;20049;-79
2023/04/09 08:33:46;;;;;;;7.50;6.70;;;18.70;77.20;;;;;;6264145;28;20045;-80
2023/04/09 08:36:48;;;;;;;8.02;7.32;;;18.70;77.90;;;;;;6266544;28;20053;-80
2023/04/09 08:39:50;;;;;;;10.85;9.73;;;18.90;76.70;;;;;;6266086;28;20778;-80
2023/04/09 08:42:55;;;;;;;12.82;10.80;;;18.90;76.10;;;;;;6267601;28;20041;-80
2023/04/09 08:46:04;;;;;;;4.50;3.88;;;18.90;75.60;;;;;;6265902;28;20060;-80
2023/04/09 08:49:08;;;;;;;3.85;3.58;;;19.10;73.60;;;;;;6267652;28;20049;-80
2023/04/09 08:52:10;;;;;;;3.65;3.35;;;19.10;72.80;;;;;;6267292;28;20056;-80
2023/04/09 08:55:12;;;;;;;3.78;3.58;;;19.30;71.70;;;;;;6264473;28;20060;-75
2023/04/09 08:58:14;;;;;;;4.95;4.55;;;19.70;71.50;;;;;;6266077;28;20124;-80
2023/04/09 09:01:21;;;;;;;4.45;4.15;;;20.40;70.90;;;;;;6266972;28;20045;-80
2023/04/09 09:04:24;;;;;;;3.78;3.47;;;21.00;69.60;;;;;;6268367;28;20459;-79
2023/04/09 09:07:27;;;;;;;4.43;4.13;;;21.40;67.80;;;;;;6266575;28;20055;-78
2023/04/09 09:10:38;;;;;;;4.43;4.10;;;21.60;66.30;;;;;;6267081;28;20037;-80
2023/04/09 09:13:40;;;;;;;2.90;2.70;;;21.70;63.30;;;;;;6270810;28;20511;-78
2023/04/09 09:16:43;;;;;;;3.30;3.10;;;21.70;63.50;;;;;;6274196;28;20092;-77
2023/04/09 09:19:46;;;;;;;2.20;2.10;;;21.90;61.90;;;;;;6263056;28;20053;-79
2023/04/09 09:22:52;;;;;;;2.17;2.08;;;21.80;59.80;;;;;;6264528;28;20052;-79
2023/04/09 09:25:53;;;;;;;2.90;2.70;;;21.40;59.50;;;;;;6266236;28;20064;-79
2023/04/09 09:28:57;;;;;;;2.10;2.00;;;20.70;60.00;;;;;;6258602;28;20041;-80
2023/04/09 09:32:00;;;;;;;2.55;2.35;;;19.70;59.60;;;;;;6252081;28;20132;-79
2023/04/09 09:35:04;;;;;;;2.00;1.90;;;18.70;60.30;;;;;;6259089;28;20049;-79
2023/04/09 09:38:06;;;;;;;2.35;2.15;;;18.40;59.70;;;;;;6264402;28;20041;-79
2023/04/09 09:41:17;;;;;;;1.80;1.70;;;17.70;59.90;;;;;;6260120;28;20128;-80
2023/04/09 09:44:31;;;;;;;2.70;2.50;;;17.00;60.10;;;;;;6267756;28;20537;-80
2023/04/09 09:47:35;;;;;;;2.60;2.40;;;16.50;61.00;;;;;;6264960;28;21068;-78
2023/04/09 09:50:40;;;;;;;2.08;1.98;;;16.20;61.80;;;;;;6258690;28;20103;-78
2023/04/09 09:53:44;;;;;;;2.10;2.00;;;15.80;61.70;;;;;;6267764;28;20049;-82
2023/04/09 09:56:48;;;;;;;1.65;1.55;;;15.40;62.10;;;;;;6264149;28;20064;-82
2023/04/09 09:59:53;;;;;;;1.90;1.80;;;15.20;62.50;;;;;;6264768;28;20055;-80
2023/04/09 10:02:58;;;;;;;1.98;1.80;;;15.20;63.10;;;;;;6266953;28;20049;-82
2023/04/09 10:06:03;;;;;;;1.98;1.77;;;15.10;63.70;;;;;;6265824;28;20045;-82
2023/04/09 10:09:06;;;;;;;2.33;2.13;;;15.10;63.30;;;;;;6265709;28;20060;-82
2023/04/09 10:12:10;;;;;;;1.75;1.65;;;15.00;63.20;;;;;;6266238;28;20061;-80
2023/04/09 10:15:12;;;;;;;1.75;1.65;;;14.80;63.50;;;;;;6264193;28;20060;-82
2023/04/09 10:18:16;;;;;;;1.85;1.75;;;14.90;63.40;;;;;;6263299;28;20060;-82
2023/04/09 10:21:26;;;;;;;1.58;1.48;;;14.80;63.50;;;;;;6264811;28;20056;-82
2023/04/09 10:24:28;;;;;;;1.58;1.48;;;14.80;63.50;;;;;;6273727;28;20506;-82
2023/04/09 10:27:30;;;;;;;1.85;1.75;;;14.80;63.70;;;;;;6264656;28;20049;-83
2023/04/09 10:30:32;;;;;;;1.73;1.63;;;14.90;63.50;;;;;;6263723;28;20059;-81
2023/04/09 10:33:37;;;;;;;3.35;2.15;;;14.80;63.00;;;;;;6263075;28;20099;-82
2023/04/09 10:36:42;;;;;;;2.00;1.80;;;14.60;62.90;;;;;;6263551;28;20115;-82
2023/04/09 10:39:46;;;;;;;1.55;1.45;;;14.80;63.20;;;;;;6210465;28;20059;-79
2023/04/09 10:42:49;;;;;;;1.60;1.50;;;15.00;63.10;;;;;;6261551;28;20122;-82
2023/04/09 10:45:52;;;;;;;1.65;1.55;;;15.00;62.70;;;;;;6268510;28;20045;-82
2023/04/09 10:49:08;;;;;;;1.77;1.67;;;15.20;62.90;;;;;;6265972;28;20045;-79
2023/04/09 10:52:15;;;;;;;1.65;1.48;;;15.30;62.40;;;;;;6262876;28;20056;-81
2023/04/09 10:55:37;;;;;;;1.50;1.35;;;15.10;62.20;;;;;;6244610;28;20091;-79
2023/04/09 10:58:38;;;;;;;1.58;1.40;;;15.20;61.40;;;;;;6261624;28;20041;-77
2023/04/09 11:01:40;;;;;;;1.67;1.58;;;15.20;61.40;;;;;;6265112;28;20045;-77
2023/04/09 11:04:59;;;;;;;1.95;1.75;;;15.40;61.80;;;;;;6261908;28;20049;-80
2023/04/09 11:08:08;;;;;;;1.90;1.80;;;15.50;61.10;;;;;;6263339;28;20049;-80
2023/04/09 11:11:11;;;;;;;2.30;2.10;;;15.50;61.50;;;;;;6261501;28;20126;-80
2023/04/09 11:14:19;;;;;;;2.15;1.95;;;15.50;61.60;;;;;;6262830;28;20048;-80
2023/04/09 11:17:21;;;;;;;1.75;1.65;;;15.70;61.70;;;;;;6263418;28;20048;-79
2023/04/09 11:20:25;;;;;;;1.70;1.38;;;16.30;61.90;;;;;;6261587;28;20045;-79
2023/04/09 11:23:28;;;;;;;2.35;2.03;;;17.00;60.90;;;;;;6264137;28;20048;-79
2023/04/09 11:26:36;;;;;;;1.88;1.77;;;17.10;59.50;;;;;;6264111;28;20059;-80
2023/04/09 11:29:37;;;;;;;;;;;16.90;58.90;;;;;;6267701;28;20065;-80
2023/04/09 11:32:39;;;;;;;2.03;1.90;;;16.60;59.30;;;;;;6275133;28;20396;-80
2023/04/09 11:35:41;;;;;;;2.50;2.30;;;16.70;59.70;;;;;;6264336;28;20045;-80
2023/04/09 11:38:44;;;;;;;2.00;1.90;;;16.80;59.00;;;;;;6266145;28;20052;-80
2023/04/09 11:41:45;;;;;;;1.70;1.60;;;16.90;59.50;;;;;;6266002;28;20041;-80
2023/04/09 11:44:48;;;;;;;1.80;1.70;;;17.00;59.30;;;;;;6263083;28;20045;-80
2023/04/09 11:47:50;;;;;;;1.67;1.52;;;17.00;58.70;;;;;;6267544;28;20167;-80
2023/04/09 11:50:52;;;;;;;1.98;1.77;;;17.00;58.70;;;;;;6263697;28;20063;-80
2023/04/09 11:53:55;;;;;;;1.70;1.60;;;17.00;58.10;;;;;;6259156;28;20041;-80
2023/04/09 11:56:59;;;;;;;1.70;1.60;;;16.80;58.20;;;;;;6260369;28;20048;-80
2023/04/09 12:00:07;;;;;;;1.70;1.60;;;16.90;58.30;;;;;;6259278;28;20056;-80
2023/04/09 12:03:10;;;;;;;2.08;1.98;;;16.70;58.20;;;;;;6264654;28;20179;-80
2023/04/09 12:06:12;;;;;;;1.90;1.80;;;16.60;58.30;;;;;;6272578;28;20052;-80
2023/04/09 12:09:15;;;;;;;2.03;1.90;;;16.60;58.10;;;;;;6274729;28;20050;-79
2023/04/09 12:12:23;;;;;;;1.80;1.70;;;16.60;58.20;;;;;;6261642;28;20045;-79
2023/04/09 12:15:25;;;;;;;;;;;17.00;58.20;;;;;;6269857;28;20052;-80
2023/04/09 12:18:27;;;;;;;1.80;1.70;;;17.10;57.00;;;;;;6260292;28;19932;-80
2023/04/09 12:21:47;;;;;;;1.73;1.63;;;17.60;57.20;;;;;;6268685;28;20056;-80
2023/04/09 12:24:50;;;;;;;1.63;1.52;;;17.80;56.20;;;;;;6269700;28;20052;-79
2023/04/09 12:27:53;;;;;;;1.50;1.40;;;18.00;55.10;;;;;;6266670;28;20052;-80
2023/04/09 12:30:55;;;;;;;1.48;1.38;;;17.90;55.00;;;;;;6267200;28;20088;-79
2023/04/09 12:33:56;;;;;;;1.40;1.30;;;17.70;54.20;;;;;;6267519;28;20408;-79
2023/04/09 12:36:58;;;;;;;1.88;1.77;;;17.70;54.80;;;;;;6270809;28;20413;-80
2023/04/09 12:40:01;;;;;;;1.60;1.50;;;17.80;54.30;;;;;;6277661;28;20033;-80
2023/04/09 12:43:03;;;;;;;1.38;1.27;;;17.80;54.40;;;;;;6271328;28;20191;-80
2023/04/09 12:46:05;;;;;;;2.33;1.55;;;17.90;54.50;;;;;;6268821;28;20041;-79
2023/04/09 12:49:07;;;;;;;1.25;1.15;;;18.10;54.40;;;;;;6269405;28;20049;-79
2023/04/09 12:52:08;;;;;;;1.70;1.60;;;18.20;54.50;;;;;;6266477;28;20052;-79
2023/04/09 12:55:12;;;;;;;1.63;1.42;;;18.50;54.30;;;;;;6268820;28;20041;-80
2023/04/09 12:58:14;;;;;;;1.45;1.35;;;18.60;54.00;;;;;;6269231;28;20481;-80
2023/04/09 13:01:16;;;;;;;1.73;1.63;;;19.00;53.90;;;;;;6267827;28;20099;-79
2023/04/09 13:04:18;;;;;;;1.60;1.50;;;19.40;52.20;;;;;;6267873;28;20048;-79
2023/04/09 13:07:21;;;;;;;1.73;1.63;;;19.20;51.40;;;;;;6266568;28;20052;-78
2023/04/09 13:10:24;;;;;;;1.85;1.75;;;18.50;50.90;;;;;;6264681;28;20052;-80
2023/04/09 13:13:28;;;;;;;1.50;1.40;;;18.10;52.00;;;;;;6265575;28;20053;-78
2023/04/09 13:16:43;;;;;;;1.67;1.58;;;18.60;52.20;;;;;;6261989;28;20048;-78
2023/04/09 13:19:46;;;;;;;1.30;1.20;;;18.80;51.50;;;;;;6263307;28;20062;-79
2023/04/09 13:22:48;;;;;;;1.67;1.20;;;18.80;51.00;;;;;;6265723;28;20098;-78
2023/04/09 13:25:51;;;;;;;1.30;1.20;;;18.60;50.20;;;;;;6266830;28;20079;-79
2023/04/09 13:28:52;;;;;;;1.48;1.38;;;18.20;50.70;;;;;;6265256;28;20056;-80
2023/04/09 13:31:55;;;;;;;1.30;1.20;;;17.90;51.00;;;;;;6262844;28;20037;-81
2023/04/09 13:34:59;;;;;;;1.40;1.30;;;17.60;51.60;;;;;;6264599;28;20063;-80
2023/04/09 13:38:00;;;;;;;1.45;1.35;;;17.80;51.90;;;;;;6265014;28;20048;-80
2023/04/09 13:41:04;;;;;;;1.30;1.20;;;17.90;51.50;;;;;;6265305;28;20068;-79
2023/04/09 13:44:06;;;;;;;1.48;1.38;;;18.20;51.70;;;;;;6264042;28;20064;-78
2023/04/09 13:47:09;;;;;;;1.63;1.52;;;18.40;50.90;;;;;;6264535;28;20052;-80
2023/04/09 13:50:12;;;;;;;1.35;1.25;;;18.40;50.70;;;;;;6264795;28;20405;-78
2023/04/09 13:53:14;;;;;;;1.60;1.50;;;18.40;50.70;;;;;;6273575;28;20529;-80
2023/04/09 13:56:17;;;;;;;1.40;1.30;;;18.50;50.50;;;;;;6261165;28;20523;-77
2023/04/09 13:59:19;;;;;;;1.00;1.00;;;18.60;50.40;;;;;;6264953;28;20045;-76
2023/04/09 14:02:22;;;;;;;1.27;1.17;;;18.70;50.20;;;;;;6260490;28;20044;-79
2023/04/09 14:05:24;;;;;;;1.65;1.55;;;18.90;50.40;;;;;;6265651;28;20048;-80
2023/04/09 14:08:26;;;;;;;1.40;1.30;;;18.90;49.80;;;;;;6262662;28;20044;-77
2023/04/09 14:11:29;;;;;;;1.35;1.25;;;18.80;50.10;;;;;;6260113;28;20429;-78
2023/04/09 14:14:34;;;;;;;1.35;1.25;;;19.10;49.70;;;;;;6263117;28;20045;-78
2023/04/09 14:17:36;;;;;;;0.98;0.98;;;19.40;49.20;;;;;;6261792;28;20060;-80
2023/04/09 14:20:37;;;;;;;1.40;1.30;;;19.70;49.70;;;;;;6263616;28;20048;-77
2023/04/09 14:23:39;;;;;;;1.35;1.25;;;19.90;48.80;;;;;;6261855;28;20041;-77
2023/04/09 14:26:42;;;;;;;1.20;1.13;;;19.70;48.30;;;;;;6255979;28;20539;-77
2023/04/09 14:29:44;;;;;;;1.48;1.35;;;19.60;48.30;;;;;;6262171;28;20072;-79
2023/04/09 14:32:46;;;;;;;1.05;1.02;;;19.50;48.70;;;;;;6261005;28;20049;-77
2023/04/09 14:35:47;;;;;;;1.67;1.58;;;19.20;48.20;;;;;;6261688;28;20041;-77
2023/04/09 14:38:49;;;;;;;1.45;1.35;;;19.20;48.80;;;;;;6259174;28;20049;-77
2023/04/09 14:41:53;;;;;;;0.80;0.80;;;19.30;48.60;;;;;;6260244;28;20056;-77
2023/04/09 14:44:54;;;;;;;1.35;1.25;;;19.30;48.60;;;;;;6259846;28;20157;-80
2023/04/09 14:47:56;;;;;;;1.67;1.58;;;19.50;48.20;;;;;;6257306;28;20046;-79
2023/04/09 14:50:58;;;;;;;2.58;2.38;;;19.50;47.90;;;;;;6261082;28;20049;-80
2023/04/09 14:54:01;;;;;;;3.95;2.20;;;19.70;47.60;;;;;;6260063;28;20041;-80
2023/04/09 14:57:04;;;;;;;1.80;1.70;;;19.70;47.00;;;;;;6260887;28;20044;-79
2023/04/09 15:00:08;;;;;;;1.77;1.67;;;19.60;47.00;;;;;;6260183;28;20064;-80
2023/04/09 15:03:10;;;;;;;1.92;1.83;;;19.70;47.10;;;;;;6259217;28;20352;-79
2023/04/09 15:06:12;;;;;;;1.60;1.50;;;20.00;46.80;;;;;;6266295;28;20068;-78
2023/04/09 15:09:16;;;;;;;1.50;1.40;;;20.30;46.70;;;;;;6266329;28;20064;-80
2023/04/09 15:12:27;;;;;;;2.10;1.90;;;20.30;46.40;;;;;;6262615;28;20451;-79
2023/04/09 15:15:35;;;;;;;1.48;1.38;;;20.20;46.50;;;;;;6260057;28;20037;-78
2023/04/09 15:25:40;;;;;;;2.13;1.92;;;18.60;47.20;;;;;;6262961;28;20124;-78
2023/04/09 15:28:52;;;;;;;2.17;1.98;;;18.00;47.90;;;;;;6258169;28;20433;-79
2023/04/09 15:32:06;;;;;;;1.55;1.45;;;17.70;48.50;;;;;;6260843;28;20445;-79
2023/04/09 15:35:08;;;;;;;1.65;1.55;;;17.60;48.70;;;;;;6255150;28;20135;-79
2023/04/09 15:38:11;;;;;;;2.40;2.20;;;17.50;48.70;;;;;;6263473;28;20045;-79
2023/04/09 15:41:15;;;;;;;1.70;1.60;;;17.40;48.90;;;;;;6261092;28;20068;-79
2023/04/09 15:44:26;;;;;;;1.60;1.50;;;17.20;49.30;;;;;;6263504;28;20056;-80
2023/04/09 15:47:31;;;;;;;1.60;1.50;;;17.10;49.60;;;;;;6242818;28;20045;-79
2023/04/09 15:50:34;;;;;;;2.20;2.00;;;16.90;49.50;;;;;;6262093;28;20139;-79
2023/04/09 15:53:36;;;;;;;1.98;1.77;;;16.70;49.50;;;;;;6261129;28;20612;-79
2023/04/09 15:56:39;;;;;;;5.00;2.58;;;16.60;49.80;;;;;;6262247;28;20049;-79
2023/04/09 15:59:42;;;;;;;1.73;1.63;;;16.40;50.00;;;;;;6261656;28;20041;-78
2023/04/09 16:02:45;;;;;;;2.47;2.28;;;16.30;50.20;;;;;;6259442;28;20509;-79
2023/04/09 16:05:47;;;;;;;1.90;1.80;;;16.20;50.50;;;;;;6262227;28;20048;-77